sensor_id;sensor_type;location;lat;lon;timestamp;P1;durP1;ratioP1;P2;durP2;ratioP2
46765;SDS011;32527;51.986;5.842;2023-03-03T00:00:58;35.50;;;16.17;;
46765;SDS011;32527;51.986;5.842;2023-03-03T00:03:24;38.80;;;16.15;;
46765;SDS011;32527;51.986;5.842;2023-03-03T00:05:51;37.97;;;17.02;;
46765;SDS011;32527;51.986;5.842;2023-03-03T00:08:17;35.15;;;16.70;;
46765;SDS011;32527;51.986;5.842;2023-03-03T00:10:44;41.13;;;18.13;;
46765;SDS011;32527;51.986;5.842;2023-03-03T00:13:17;40.63;;;19.33;;
46765;SDS011;32527;51.986;5.842;2023-03-03T00:15:48;38.15;;;16.42;;
46765;SDS011;32527;51.986;5.842;2023-03-03T00:20:57;36.00;;;17.13;;
46765;SDS011;32527;51.986;5.842;2023-03-03T00:23:38;37.75;;;17.08;;
46765;SDS011;32527;51.986;5.842;2023-03-03T00:26:15;45.20;;;18.10;;
46765;SDS011;32527;51.986;5.842;2023-03-03T00:28:47;41.75;;;20.42;;
46765;SDS011;32527;51.986;5.842;2023-03-03T00:31:18;41.58;;;18.90;;
46765;SDS011;32527;51.986;5.842;2023-03-03T00:33:49;41.78;;;18.17;;
46765;SDS011;32527;51.986;5.842;2023-03-03T00:38:52;40.78;;;18.42;;
46765;SDS011;32527;51.986;5.842;2023-03-03T00:41:22;43.17;;;20.17;;
46765;SDS011;32527;51.986;5.842;2023-03-03T00:43:52;49.03;;;19.80;;
46765;SDS011;32527;51.986;5.842;2023-03-03T00:46:19;41.45;;;18.00;;
46765;SDS011;32527;51.986;5.842;2023-03-03T00:48:46;44.42;;;20.15;;
46765;SDS011;32527;51.986;5.842;2023-03-03T00:51:24;35.40;;;17.30;;
46765;SDS011;32527;51.986;5.842;2023-03-03T00:53:52;49.33;;;19.05;;
46765;SDS011;32527;51.986;5.842;2023-03-03T00:56:18;42.75;;;19.70;;
46765;SDS011;32527;51.986;5.842;2023-03-03T00:58:44;44.22;;;20.13;;
46765;SDS011;32527;51.986;5.842;2023-03-03T01:01:13;37.28;;;18.42;;
46765;SDS011;32527;51.986;5.842;2023-03-03T01:03:44;44.13;;;18.92;;
46765;SDS011;32527;51.986;5.842;2023-03-03T01:06:10;44.40;;;19.60;;
46765;SDS011;32527;51.986;5.842;2023-03-03T01:08:36;43.90;;;19.13;;
46765;SDS011;32527;51.986;5.842;2023-03-03T01:11:04;45.67;;;18.90;;
46765;SDS011;32527;51.986;5.842;2023-03-03T01:13:44;44.55;;;18.02;;
46765;SDS011;32527;51.986;5.842;2023-03-03T01:16:11;45.78;;;19.80;;
46765;SDS011;32527;51.986;5.842;2023-03-03T01:18:37;41.20;;;17.52;;
46765;SDS011;32527;51.986;5.842;2023-03-03T01:21:05;49.25;;;19.67;;
46765;SDS011;32527;51.986;5.842;2023-03-03T01:23:32;43.13;;;17.75;;
46765;SDS011;32527;51.986;5.842;2023-03-03T01:25:58;37.75;;;17.17;;
46765;SDS011;32527;51.986;5.842;2023-03-03T01:28:23;44.33;;;18.70;;
46765;SDS011;32527;51.986;5.842;2023-03-03T01:30:50;39.13;;;18.45;;
46765;SDS011;32527;51.986;5.842;2023-03-03T01:33:16;38.03;;;16.88;;
46765;SDS011;32527;51.986;5.842;2023-03-03T01:35:44;37.40;;;15.23;;
46765;SDS011;32527;51.986;5.842;2023-03-03T01:38:11;40.83;;;16.88;;
46765;SDS011;32527;51.986;5.842;2023-03-03T01:40:37;32.53;;;15.30;;
46765;SDS011;32527;51.986;5.842;2023-03-03T01:43:03;38.83;;;16.55;;
46765;SDS011;32527;51.986;5.842;2023-03-03T01:45:31;33.20;;;15.40;;
46765;SDS011;32527;51.986;5.842;2023-03-03T01:48:05;39.47;;;15.82;;
46765;SDS011;32527;51.986;5.842;2023-03-03T01:50:44;39.53;;;15.70;;
46765;SDS011;32527;51.986;5.842;2023-03-03T01:53:19;30.88;;;15.07;;
46765;SDS011;32527;51.986;5.842;2023-03-03T01:55:58;33.97;;;15.25;;
46765;SDS011;32527;51.986;5.842;2023-03-03T01:58:26;35.70;;;15.05;;
46765;SDS011;32527;51.986;5.842;2023-03-03T02:00:59;32.90;;;14.85;;
46765;SDS011;32527;51.986;5.842;2023-03-03T02:05:56;31.70;;;14.43;;
46765;SDS011;32527;51.986;5.842;2023-03-03T02:08:29;34.45;;;14.80;;
46765;SDS011;32527;51.986;5.842;2023-03-03T02:11:02;37.95;;;16.30;;
46765;SDS011;32527;51.986;5.842;2023-03-03T02:13:29;37.50;;;17.02;;
46765;SDS011;32527;51.986;5.842;2023-03-03T02:15:55;34.70;;;15.00;;
46765;SDS011;32527;51.986;5.842;2023-03-03T02:18:23;34.75;;;15.82;;
46765;SDS011;32527;51.986;5.842;2023-03-03T02:23:23;29.08;;;13.23;;
46765;SDS011;32527;51.986;5.842;2023-03-03T02:28:22;27.45;;;12.90;;
46765;SDS011;32527;51.986;5.842;2023-03-03T02:30:51;28.40;;;13.35;;
46765;SDS011;32527;51.986;5.842;2023-03-03T02:33:19;30.63;;;13.77;;
46765;SDS011;32527;51.986;5.842;2023-03-03T02:35:45;27.77;;;11.82;;
46765;SDS011;32527;51.986;5.842;2023-03-03T02:38:23;30.55;;;14.10;;
46765;SDS011;32527;51.986;5.842;2023-03-03T02:40:58;33.88;;;13.43;;
46765;SDS011;32527;51.986;5.842;2023-03-03T02:43:26;32.40;;;15.25;;
46765;SDS011;32527;51.986;5.842;2023-03-03T02:45:57;25.63;;;12.55;;
46765;SDS011;32527;51.986;5.842;2023-03-03T02:48:23;32.42;;;14.00;;
46765;SDS011;32527;51.986;5.842;2023-03-03T02:50:49;27.88;;;13.38;;
46765;SDS011;32527;51.986;5.842;2023-03-03T02:53:15;28.25;;;14.13;;
46765;SDS011;32527;51.986;5.842;2023-03-03T02:55:41;31.67;;;13.10;;
46765;SDS011;32527;51.986;5.842;2023-03-03T02:58:06;35.70;;;16.30;;
46765;SDS011;32527;51.986;5.842;2023-03-03T03:00:32;29.83;;;13.20;;
46765;SDS011;32527;51.986;5.842;2023-03-03T03:02:59;32.90;;;12.98;;
46765;SDS011;32527;51.986;5.842;2023-03-03T03:05:25;39.15;;;15.80;;
46765;SDS011;32527;51.986;5.842;2023-03-03T03:07:53;39.25;;;15.00;;
46765;SDS011;32527;51.986;5.842;2023-03-03T03:10:19;32.05;;;15.43;;
46765;SDS011;32527;51.986;5.842;2023-03-03T03:12:45;39.38;;;16.00;;
46765;SDS011;32527;51.986;5.842;2023-03-03T03:15:12;32.80;;;14.77;;
46765;SDS011;32527;51.986;5.842;2023-03-03T03:17:39;37.67;;;16.67;;
46765;SDS011;32527;51.986;5.842;2023-03-03T03:20:05;33.08;;;15.50;;
46765;SDS011;32527;51.986;5.842;2023-03-03T03:22:31;35.00;;;15.18;;
46765;SDS011;32527;51.986;5.842;2023-03-03T03:24:58;38.25;;;16.75;;
46765;SDS011;32527;51.986;5.842;2023-03-03T03:27:24;39.78;;;16.73;;
46765;SDS011;32527;51.986;5.842;2023-03-03T03:29:50;38.70;;;16.38;;
46765;SDS011;32527;51.986;5.842;2023-03-03T03:32:17;36.83;;;16.02;;
46765;SDS011;32527;51.986;5.842;2023-03-03T03:34:43;44.50;;;16.20;;
46765;SDS011;32527;51.986;5.842;2023-03-03T03:37:10;40.80;;;17.17;;
46765;SDS011;32527;51.986;5.842;2023-03-03T03:39:37;41.95;;;16.35;;
46765;SDS011;32527;51.986;5.842;2023-03-03T03:42:03;43.97;;;17.52;;
46765;SDS011;32527;51.986;5.842;2023-03-03T03:44:29;37.47;;;16.15;;
46765;SDS011;32527;51.986;5.842;2023-03-03T03:46:55;39.30;;;16.20;;
46765;SDS011;32527;51.986;5.842;2023-03-03T03:49:21;42.40;;;17.58;;
46765;SDS011;32527;51.986;5.842;2023-03-03T03:51:49;36.88;;;15.00;;
46765;SDS011;32527;51.986;5.842;2023-03-03T03:54:18;35.15;;;16.92;;
46765;SDS011;32527;51.986;5.842;2023-03-03T03:56:44;44.30;;;19.05;;
46765;SDS011;32527;51.986;5.842;2023-03-03T03:59:15;48.95;;;18.77;;
46765;SDS011;32527;51.986;5.842;2023-03-03T04:01:43;47.10;;;19.08;;
46765;SDS011;32527;51.986;5.842;2023-03-03T04:04:23;46.40;;;19.30;;
46765;SDS011;32527;51.986;5.842;2023-03-03T04:07:33;42.38;;;16.75;;
46765;SDS011;32527;51.986;5.842;2023-03-03T04:10:29;42.58;;;16.05;;
46765;SDS011;32527;51.986;5.842;2023-03-03T04:13:09;44.42;;;16.33;;
46765;SDS011;32527;51.986;5.842;2023-03-03T04:19:04;41.92;;;15.32;;
46765;SDS011;32527;51.986;5.842;2023-03-03T04:22:12;39.72;;;16.02;;
46765;SDS011;32527;51.986;5.842;2023-03-03T04:24:46;37.45;;;15.05;;
46765;SDS011;32527;51.986;5.842;2023-03-03T04:30:18;45.55;;;17.73;;
46765;SDS011;32527;51.986;5.842;2023-03-03T04:32:56;46.50;;;18.05;;
46765;SDS011;32527;51.986;5.842;2023-03-03T04:35:47;44.92;;;16.95;;
46765;SDS011;32527;51.986;5.842;2023-03-03T04:38:29;45.45;;;16.38;;
46765;SDS011;32527;51.986;5.842;2023-03-03T04:41:33;44.50;;;17.55;;
46765;SDS011;32527;51.986;5.842;2023-03-03T04:44:20;38.17;;;15.40;;
46765;SDS011;32527;51.986;5.842;2023-03-03T04:49:44;39.95;;;16.58;;
46765;SDS011;32527;51.986;5.842;2023-03-03T04:59:00;35.13;;;14.20;;
46765;SDS011;32527;51.986;5.842;2023-03-03T05:05:03;42.83;;;16.23;;
46765;SDS011;32527;51.986;5.842;2023-03-03T05:08:05;50.20;;;18.40;;
46765;SDS011;32527;51.986;5.842;2023-03-03T05:11:30;43.72;;;16.35;;
46765;SDS011;32527;51.986;5.842;2023-03-03T05:13:57;41.42;;;17.05;;
46765;SDS011;32527;51.986;5.842;2023-03-03T05:16:38;42.00;;;16.05;;
46765;SDS011;32527;51.986;5.842;2023-03-03T05:34:42;33.80;;;14.57;;
46765;SDS011;32527;51.986;5.842;2023-03-03T05:37:33;33.03;;;14.25;;
46765;SDS011;32527;51.986;5.842;2023-03-03T05:43:46;30.38;;;11.93;;
46765;SDS011;32527;51.986;5.842;2023-03-03T05:46:43;28.35;;;11.35;;
46765;SDS011;32527;51.986;5.842;2023-03-03T05:49:50;26.52;;;10.85;;
46765;SDS011;32527;51.986;5.842;2023-03-03T05:52:20;22.38;;;10.77;;
46765;SDS011;32527;51.986;5.842;2023-03-03T05:58:02;27.40;;;11.65;;
46765;SDS011;32527;51.986;5.842;2023-03-03T06:04:40;31.58;;;12.38;;
46765;SDS011;32527;51.986;5.842;2023-03-03T06:07:20;38.35;;;14.48;;
46765;SDS011;32527;51.986;5.842;2023-03-03T06:10:02;30.88;;;13.38;;
46765;SDS011;32527;51.986;5.842;2023-03-03T06:12:49;34.10;;;14.95;;
46765;SDS011;32527;51.986;5.842;2023-03-03T06:15:26;30.92;;;14.30;;
46765;SDS011;32527;51.986;5.842;2023-03-03T06:18:07;32.70;;;14.38;;
46765;SDS011;32527;51.986;5.842;2023-03-03T06:23:57;33.00;;;13.13;;
46765;SDS011;32527;51.986;5.842;2023-03-03T06:26:35;31.85;;;12.63;;
46765;SDS011;32527;51.986;5.842;2023-03-03T06:29:27;28.35;;;12.73;;
46765;SDS011;32527;51.986;5.842;2023-03-03T06:32:22;35.13;;;13.65;;
46765;SDS011;32527;51.986;5.842;2023-03-03T06:35:15;29.70;;;13.20;;
46765;SDS011;32527;51.986;5.842;2023-03-03T06:37:45;32.80;;;14.98;;
46765;SDS011;32527;51.986;5.842;2023-03-03T06:40:23;33.53;;;14.75;;
46765;SDS011;32527;51.986;5.842;2023-03-03T06:43:11;35.90;;;13.85;;
46765;SDS011;32527;51.986;5.842;2023-03-03T06:45:59;34.53;;;13.85;;
46765;SDS011;32527;51.986;5.842;2023-03-03T06:49:06;39.83;;;14.07;;
46765;SDS011;32527;51.986;5.842;2023-03-03T06:52:44;31.95;;;12.48;;
46765;SDS011;32527;51.986;5.842;2023-03-03T06:55:35;29.63;;;12.48;;
46765;SDS011;32527;51.986;5.842;2023-03-03T06:58:41;34.03;;;15.05;;
46765;SDS011;32527;51.986;5.842;2023-03-03T07:07:44;35.08;;;11.90;;
46765;SDS011;32527;51.986;5.842;2023-03-03T07:14:01;37.08;;;13.45;;
46765;SDS011;32527;51.986;5.842;2023-03-03T07:16:53;30.10;;;11.65;;
46765;SDS011;32527;51.986;5.842;2023-03-03T07:20:00;27.00;;;11.65;;
46765;SDS011;32527;51.986;5.842;2023-03-03T07:27:11;24.02;;;10.60;;
46765;SDS011;32527;51.986;5.842;2023-03-03T07:30:26;26.10;;;10.00;;
46765;SDS011;32527;51.986;5.842;2023-03-03T07:33:07;25.00;;;9.75;;
46765;SDS011;32527;51.986;5.842;2023-03-03T07:39:42;23.58;;;10.57;;
46765;SDS011;32527;51.986;5.842;2023-03-03T07:50:36;27.17;;;9.82;;
46765;SDS011;32527;51.986;5.842;2023-03-03T07:53:33;20.23;;;8.68;;
46765;SDS011;32527;51.986;5.842;2023-03-03T07:56:33;24.67;;;8.70;;
46765;SDS011;32527;51.986;5.842;2023-03-03T07:59:32;21.98;;;8.43;;
46765;SDS011;32527;51.986;5.842;2023-03-03T08:11:46;15.02;;;7.47;;
46765;SDS011;32527;51.986;5.842;2023-03-03T08:14:21;20.35;;;8.15;;
46765;SDS011;32527;51.986;5.842;2023-03-03T08:16:55;19.58;;;8.30;;
46765;SDS011;32527;51.986;5.842;2023-03-03T08:19:34;18.20;;;8.40;;
46765;SDS011;32527;51.986;5.842;2023-03-03T08:22:24;17.10;;;8.02;;
46765;SDS011;32527;51.986;5.842;2023-03-03T08:25:02;17.20;;;8.13;;
46765;SDS011;32527;51.986;5.842;2023-03-03T08:27:37;22.83;;;9.38;;
46765;SDS011;32527;51.986;5.842;2023-03-03T08:30:33;21.00;;;7.78;;
46765;SDS011;32527;51.986;5.842;2023-03-03T08:33:34;22.77;;;8.90;;
46765;SDS011;32527;51.986;5.842;2023-03-03T08:36:43;21.88;;;9.00;;
46765;SDS011;32527;51.986;5.842;2023-03-03T08:39:54;22.58;;;8.98;;
46765;SDS011;32527;51.986;5.842;2023-03-03T08:43:16;22.92;;;8.63;;
46765;SDS011;32527;51.986;5.842;2023-03-03T08:46:17;18.15;;;8.60;;
46765;SDS011;32527;51.986;5.842;2023-03-03T08:49:35;19.77;;;9.00;;
46765;SDS011;32527;51.986;5.842;2023-03-03T08:52:19;16.92;;;7.93;;
46765;SDS011;32527;51.986;5.842;2023-03-03T08:55:09;18.98;;;7.78;;
46765;SDS011;32527;51.986;5.842;2023-03-03T08:58:09;17.98;;;7.72;;
46765;SDS011;32527;51.986;5.842;2023-03-03T09:00:48;16.80;;;7.30;;
46765;SDS011;32527;51.986;5.842;2023-03-03T09:03:26;16.85;;;7.35;;
46765;SDS011;32527;51.986;5.842;2023-03-03T09:06:09;15.20;;;7.07;;
46765;SDS011;32527;51.986;5.842;2023-03-03T09:08:46;15.35;;;7.50;;
46765;SDS011;32527;51.986;5.842;2023-03-03T09:11:19;14.02;;;6.35;;
46765;SDS011;32527;51.986;5.842;2023-03-03T09:13:57;11.82;;;6.32;;
46765;SDS011;32527;51.986;5.842;2023-03-03T09:16:54;17.90;;;7.78;;
46765;SDS011;32527;51.986;5.842;2023-03-03T09:21:55;16.08;;;6.35;;
46765;SDS011;32527;51.986;5.842;2023-03-03T09:24:29;16.80;;;7.00;;
46765;SDS011;32527;51.986;5.842;2023-03-03T09:27:06;13.43;;;6.63;;
46765;SDS011;32527;51.986;5.842;2023-03-03T09:29:56;15.82;;;7.13;;
46765;SDS011;32527;51.986;5.842;2023-03-03T09:32:31;15.23;;;6.55;;
46765;SDS011;32527;51.986;5.842;2023-03-03T09:43:34;11.73;;;5.80;;
46765;SDS011;32527;51.986;5.842;2023-03-03T09:51:55;9.15;;;4.85;;
46765;SDS011;32527;51.986;5.842;2023-03-03T09:54:40;7.95;;;4.80;;
46765;SDS011;32527;51.986;5.842;2023-03-03T10:03:34;9.20;;;4.55;;
46765;SDS011;32527;51.986;5.842;2023-03-03T10:13:39;7.70;;;4.40;;
46765;SDS011;32527;51.986;5.842;2023-03-03T10:16:46;10.43;;;5.13;;
46765;SDS011;32527;51.986;5.842;2023-03-03T10:19:57;10.63;;;5.18;;
46765;SDS011;32527;51.986;5.842;2023-03-03T10:25:33;12.35;;;4.70;;
46765;SDS011;32527;51.986;5.842;2023-03-03T10:31:07;11.90;;;5.53;;
46765;SDS011;32527;51.986;5.842;2023-03-03T10:36:29;11.95;;;5.10;;
46765;SDS011;32527;51.986;5.842;2023-03-03T10:39:09;15.18;;;4.90;;
46765;SDS011;32527;51.986;5.842;2023-03-03T10:42:21;10.10;;;4.65;;
46765;SDS011;32527;51.986;5.842;2023-03-03T10:45:23;9.07;;;4.85;;
46765;SDS011;32527;51.986;5.842;2023-03-03T10:51:02;11.50;;;4.38;;
46765;SDS011;32527;51.986;5.842;2023-03-03T10:56:42;8.45;;;4.30;;
46765;SDS011;32527;51.986;5.842;2023-03-03T10:59:38;9.80;;;4.53;;
46765;SDS011;32527;51.986;5.842;2023-03-03T11:02:39;9.20;;;4.38;;
46765;SDS011;32527;51.986;5.842;2023-03-03T11:30:17;7.10;;;3.92;;
46765;SDS011;32527;51.986;5.842;2023-03-03T11:38:05;8.07;;;3.85;;
46765;SDS011;32527;51.986;5.842;2023-03-03T11:43:49;6.07;;;3.90;;
46765;SDS011;32527;51.986;5.842;2023-03-03T11:46:24;8.63;;;3.97;;
46765;SDS011;32527;51.986;5.842;2023-03-03T11:55:16;7.13;;;3.40;;
46765;SDS011;32527;51.986;5.842;2023-03-03T11:59:51;6.10;;;3.03;;
46765;SDS011;32527;51.986;5.842;2023-03-03T12:24:33;7.07;;;3.40;;
46765;SDS011;32527;51.986;5.842;2023-03-03T12:27:07;7.95;;;3.22;;
46765;SDS011;32527;51.986;5.842;2023-03-03T12:29:49;8.40;;;4.07;;
46765;SDS011;32527;51.986;5.842;2023-03-03T12:35:25;6.63;;;3.67;;
46765;SDS011;32527;51.986;5.842;2023-03-03T12:38:10;6.35;;;3.00;;
46765;SDS011;32527;51.986;5.842;2023-03-03T12:44:15;6.35;;;3.33;;
46765;SDS011;32527;51.986;5.842;2023-03-03T12:58:51;5.07;;;2.92;;
46765;SDS011;32527;51.986;5.842;2023-03-03T13:01:41;4.75;;;2.88;;
46765;SDS011;32527;51.986;5.842;2023-03-03T13:04:34;5.57;;;3.10;;
46765;SDS011;32527;51.986;5.842;2023-03-03T13:12:45;3.92;;;2.47;;
46765;SDS011;32527;51.986;5.842;2023-03-03T13:18:41;7.07;;;2.85;;
46765;SDS011;32527;51.986;5.842;2023-03-03T13:21:18;8.10;;;2.95;;
46765;SDS011;32527;51.986;5.842;2023-03-03T13:27:06;5.88;;;2.90;;
46765;SDS011;32527;51.986;5.842;2023-03-03T13:29:39;4.28;;;2.08;;
46765;SDS011;32527;51.986;5.842;2023-03-03T13:37:48;5.88;;;2.92;;
46765;SDS011;32527;51.986;5.842;2023-03-03T13:40:17;3.28;;;2.13;;
46765;SDS011;32527;51.986;5.842;2023-03-03T13:43:21;5.45;;;3.20;;
46765;SDS011;32527;51.986;5.842;2023-03-03T13:45:50;5.47;;;2.90;;
46765;SDS011;32527;51.986;5.842;2023-03-03T13:56:33;8.15;;;3.97;;
46765;SDS011;32527;51.986;5.842;2023-03-03T13:59:19;10.07;;;5.07;;
46765;SDS011;32527;51.986;5.842;2023-03-03T14:02:19;9.07;;;5.30;;
46765;SDS011;32527;51.986;5.842;2023-03-03T14:04:59;7.45;;;4.28;;
46765;SDS011;32527;51.986;5.842;2023-03-03T14:07:37;10.32;;;4.97;;
46765;SDS011;32527;51.986;5.842;2023-03-03T14:10:18;10.80;;;4.75;;
46765;SDS011;32527;51.986;5.842;2023-03-03T14:15:24;7.25;;;4.50;;
46765;SDS011;32527;51.986;5.842;2023-03-03T14:20:52;8.38;;;4.28;;
46765;SDS011;32527;51.986;5.842;2023-03-03T14:23:26;7.20;;;3.53;;
46765;SDS011;32527;51.986;5.842;2023-03-03T14:26:06;12.30;;;3.97;;
46765;SDS011;32527;51.986;5.842;2023-03-03T14:28:38;7.38;;;3.53;;
46765;SDS011;32527;51.986;5.842;2023-03-03T14:31:24;8.07;;;3.70;;
46765;SDS011;32527;51.986;5.842;2023-03-03T14:34:00;6.80;;;3.47;;
46765;SDS011;32527;51.986;5.842;2023-03-03T14:36:36;7.75;;;3.38;;
46765;SDS011;32527;51.986;5.842;2023-03-03T14:50:47;8.68;;;3.88;;
46765;SDS011;32527;51.986;5.842;2023-03-03T14:55:48;6.78;;;3.58;;
46765;SDS011;32527;51.986;5.842;2023-03-03T15:04:00;8.63;;;2.55;;
46765;SDS011;32527;51.986;5.842;2023-03-03T15:12:00;7.60;;;2.33;;
46765;SDS011;32527;51.986;5.842;2023-03-03T15:14:29;5.03;;;2.70;;
46765;SDS011;32527;51.986;5.842;2023-03-03T15:19:51;6.97;;;2.60;;
46765;SDS011;32527;51.986;5.842;2023-03-03T15:22:31;4.25;;;2.20;;
46765;SDS011;32527;51.986;5.842;2023-03-03T15:31:06;6.00;;;2.65;;
46765;SDS011;32527;51.986;5.842;2023-03-03T15:34:35;5.57;;;2.75;;
46765;SDS011;32527;51.986;5.842;2023-03-03T15:39:40;11.23;;;3.83;;
46765;SDS011;32527;51.986;5.842;2023-03-03T15:42:13;9.30;;;2.88;;
46765;SDS011;32527;51.986;5.842;2023-03-03T15:45:12;6.53;;;2.90;;
46765;SDS011;32527;51.986;5.842;2023-03-03T15:53:20;7.82;;;2.88;;
46765;SDS011;32527;51.986;5.842;2023-03-03T16:09:12;3.55;;;2.58;;
46765;SDS011;32527;51.986;5.842;2023-03-03T16:26:59;6.45;;;2.90;;
46765;SDS011;32527;51.986;5.842;2023-03-03T16:32:29;4.80;;;2.78;;
46765;SDS011;32527;51.986;5.842;2023-03-03T16:38:03;6.95;;;3.35;;
46765;SDS011;32527;51.986;5.842;2023-03-03T16:40:51;10.63;;;3.33;;
46765;SDS011;32527;51.986;5.842;2023-03-03T16:52:49;5.72;;;3.42;;
46765;SDS011;32527;51.986;5.842;2023-03-03T16:55:46;7.63;;;2.78;;
46765;SDS011;32527;51.986;5.842;2023-03-03T17:13:01;5.55;;;2.58;;
46765;SDS011;32527;51.986;5.842;2023-03-03T17:31:42;3.60;;;2.33;;
46765;SDS011;32527;51.986;5.842;2023-03-03T17:44:33;6.05;;;2.30;;
46765;SDS011;32527;51.986;5.842;2023-03-03T18:09:31;5.82;;;3.35;;
46765;SDS011;32527;51.986;5.842;2023-03-03T18:15:48;8.40;;;2.88;;
46765;SDS011;32527;51.986;5.842;2023-03-03T18:22:18;7.28;;;2.75;;
46765;SDS011;32527;51.986;5.842;2023-03-03T18:31:26;8.20;;;2.60;;
46765;SDS011;32527;51.986;5.842;2023-03-03T18:50:47;13.30;;;2.92;;
46765;SDS011;32527;51.986;5.842;2023-03-03T18:53:28;8.50;;;2.83;;
46765;SDS011;32527;51.986;5.842;2023-03-03T18:57:13;18.48;;;3.35;;
46765;SDS011;32527;51.986;5.842;2023-03-03T19:21:34;25.23;;;3.92;;
46765;SDS011;32527;51.986;5.842;2023-03-03T21:04:36;22.52;;;4.00;;
46765;SDS011;32527;51.986;5.842;2023-03-03T21:12:57;18.83;;;3.70;;
46765;SDS011;32527;51.986;5.842;2023-03-03T21:16:45;13.88;;;3.42;;
46765;SDS011;32527;51.986;5.842;2023-03-03T21:27:48;16.80;;;4.22;;
46765;SDS011;32527;51.986;5.842;2023-03-03T21:42:05;18.17;;;3.95;;
46765;SDS011;32527;51.986;5.842;2023-03-03T21:46:57;12.63;;;3.90;;
46765;SDS011;32527;51.986;5.842;2023-03-03T21:49:23;21.00;;;4.03;;
46765;SDS011;32527;51.986;5.842;2023-03-03T21:51:49;18.67;;;4.32;;
46765;SDS011;32527;51.986;5.842;2023-03-03T21:54:14;15.02;;;4.50;;
46765;SDS011;32527;51.986;5.842;2023-03-03T21:56:40;24.13;;;5.15;;
46765;SDS011;32527;51.986;5.842;2023-03-03T21:59:09;14.63;;;4.07;;
46765;SDS011;32527;51.986;5.842;2023-03-03T22:01:34;18.48;;;4.63;;
46765;SDS011;32527;51.986;5.842;2023-03-03T22:04:00;13.80;;;4.25;;
46765;SDS011;32527;51.986;5.842;2023-03-03T22:06:26;19.38;;;4.65;;
46765;SDS011;32527;51.986;5.842;2023-03-03T22:08:52;30.90;;;4.93;;
46765;SDS011;32527;51.986;5.842;2023-03-03T22:11:18;15.98;;;3.45;;
46765;SDS011;32527;51.986;5.842;2023-03-03T22:13:44;15.20;;;4.28;;
46765;SDS011;32527;51.986;5.842;2023-03-03T22:16:09;12.80;;;3.95;;
46765;SDS011;32527;51.986;5.842;2023-03-03T22:18:36;17.13;;;4.45;;
46765;SDS011;32527;51.986;5.842;2023-03-03T22:21:02;19.40;;;4.28;;
46765;SDS011;32527;51.986;5.842;2023-03-03T22:23:29;22.50;;;4.57;;
46765;SDS011;32527;51.986;5.842;2023-03-03T22:25:55;23.17;;;4.80;;
46765;SDS011;32527;51.986;5.842;2023-03-03T22:28:21;23.77;;;4.95;;
46765;SDS011;32527;51.986;5.842;2023-03-03T22:30:48;13.55;;;3.95;;
46765;SDS011;32527;51.986;5.842;2023-03-03T22:33:14;15.15;;;3.75;;
46765;SDS011;32527;51.986;5.842;2023-03-03T22:35:40;18.67;;;4.18;;
46765;SDS011;32527;51.986;5.842;2023-03-03T22:38:06;19.23;;;4.05;;
46765;SDS011;32527;51.986;5.842;2023-03-03T22:40:31;22.20;;;4.63;;
46765;SDS011;32527;51.986;5.842;2023-03-03T22:42:57;12.80;;;4.15;;
46765;SDS011;32527;51.986;5.842;2023-03-03T22:45:24;17.80;;;4.60;;
46765;SDS011;32527;51.986;5.842;2023-03-03T22:47:50;18.17;;;4.03;;
46765;SDS011;32527;51.986;5.842;2023-03-03T22:50:15;21.20;;;3.35;;
46765;SDS011;32527;51.986;5.842;2023-03-03T22:52:42;18.73;;;5.60;;
46765;SDS011;32527;51.986;5.842;2023-03-03T22:55:08;25.38;;;3.40;;
46765;SDS011;32527;51.986;5.842;2023-03-03T22:57:34;23.75;;;3.80;;
46765;SDS011;32527;51.986;5.842;2023-03-03T23:00:00;19.40;;;4.70;;
46765;SDS011;32527;51.986;5.842;2023-03-03T23:02:27;17.20;;;3.80;;
46765;SDS011;32527;51.986;5.842;2023-03-03T23:04:53;15.18;;;3.28;;
46765;SDS011;32527;51.986;5.842;2023-03-03T23:07:25;24.00;;;4.28;;
46765;SDS011;32527;51.986;5.842;2023-03-03T23:09:52;16.40;;;3.70;;
46765;SDS011;32527;51.986;5.842;2023-03-03T23:12:18;19.27;;;3.10;;
46765;SDS011;32527;51.986;5.842;2023-03-03T23:14:44;19.75;;;3.92;;
46765;SDS011;32527;51.986;5.842;2023-03-03T23:17:09;15.32;;;3.58;;
46765;SDS011;32527;51.986;5.842;2023-03-03T23:19:36;19.95;;;3.65;;
46765;SDS011;32527;51.986;5.842;2023-03-03T23:22:02;17.63;;;4.65;;
46765;SDS011;32527;51.986;5.842;2023-03-03T23:24:27;17.10;;;2.88;;
46765;SDS011;32527;51.986;5.842;2023-03-03T23:26:53;19.70;;;3.97;;
46765;SDS011;32527;51.986;5.842;2023-03-03T23:29:25;19.95;;;4.07;;
46765;SDS011;32527;51.986;5.842;2023-03-03T23:31:51;18.73;;;3.83;;
46765;SDS011;32527;51.986;5.842;2023-03-03T23:34:16;18.33;;;3.55;;
46765;SDS011;32527;51.986;5.842;2023-03-03T23:36:42;14.50;;;3.38;;
46765;SDS011;32527;51.986;5.842;2023-03-03T23:39:07;14.68;;;3.90;;
46765;SDS011;32527;51.986;5.842;2023-03-03T23:41:34;21.48;;;5.22;;
46765;SDS011;32527;51.986;5.842;2023-03-03T23:44:00;19.08;;;2.90;;
46765;SDS011;32527;51.986;5.842;2023-03-03T23:46:26;19.23;;;4.28;;
46765;SDS011;32527;51.986;5.842;2023-03-03T23:48:52;11.30;;;3.70;;
46765;SDS011;32527;51.986;5.842;2023-03-03T23:51:17;19.77;;;3.78;;
46765;SDS011;32527;51.986;5.842;2023-03-03T23:53:43;15.77;;;3.03;;
46765;SDS011;32527;51.986;5.842;2023-03-03T23:56:09;14.20;;;3.83;;
46765;SDS011;32527;51.986;5.842;2023-03-03T23:58:34;12.45;;;3.00;;
